Wausa, NE (68786)

4:19 PM CDT on September 01, 2015 (GMT -0500)
Hwy 20 and Hwy 81 | | Change Station
CLOSE
Current Station
Personal Weather Station
Location: Osmond, NE
Elevation: 1778 ft
Nearby Weather Stations

Elev 1778 ft 42.37 °N, 97.44 °W | Updated 7 minutes ago

Partly Cloudy
Partly Cloudy
82.9 °F
Feels Like 87 °F
N
6.0
Wind Variable Wind from South
Gusts 19.0 mph

Today
High -- | Low -- °F
--% Chance of Precip.
Yesterday
High -- | Low -- °F
Precip. -- in
6:54 AM 8:04 PM
Waning Gibbous, 86% visible
Pressure 29.83 in
Visibility 10.0 miles
Clouds Clear
Heat Index 87 °F
Dew Point 71 °F
Humidity 67%
Rainfall 0.00 in
Snow Depth Not available.
UV 5 out of 12
Pollen 10.50 out of 12
Air Quality Not available.
Flu Activity Not available.
METAR KYKN 012115Z AUTO 15009KT 10SM CLR 27/21 A2983 RMK AO1
Pressure 29.83 in
Visibility 10.0 miles
Clouds Clear
Heat Index 87 °F
Dew Point 71 °F
Humidity 67%
Rainfall 0.00 in
Snow Depth Not available.
UV 5 out of 12
Pollen 10.50 out of 12
Air Quality Not available.
Flu Activity Not available.
METAR KYKN 012115Z AUTO 15009KT 10SM CLR 27/21 A2983 RMK AO1

10-Day Weather Forecast

×

Almanac

Astronomy

Sep. 01, 2015 Rise Set
Actual Time
Civil Twilight
Nautical Twilight
Astronomical Twilight
Moon
Length of Visible Light
Length of Day
Tomorrow will be .
, % of the Moon is Illuminated

Today's Extremes

State Highs State Lows

Community

WunderPhotos

Upload Photos

1,851,617 photos uploaded!

WunderBlogs® & News

Nearby

Air Quality

  Air Quality AQ Index Pollutant
Not available.

Snow Depth

Station Depth Elevation

Earthquake Activity

City Distance Mag. Time & Date
Minimum magnitude displayed is 2.5.

Coastal Water Temperatures

Place Temperature

Stations

Nearby Weather Stations

Station Location Temp. Windchill Dew Point Humidity Wind Precip. Elev Updated Type